createdAt,value
2017-06-02T00:00:46.770Z,19.48
2017-06-02T00:03:15.585Z,19.98
2017-06-02T00:05:44.402Z,19.78
2017-06-02T00:08:13.235Z,20.50
2017-06-02T00:10:42.100Z,18.56
2017-06-02T00:13:10.928Z,19.32
2017-06-02T00:15:39.771Z,18.82
2017-06-02T00:18:08.595Z,17.78
2017-06-02T00:20:37.447Z,18.40
2017-06-02T00:23:06.267Z,19.04
2017-06-02T00:25:35.088Z,18.60
2017-06-02T00:28:03.917Z,20.68
2017-06-02T00:30:32.748Z,20.26
2017-06-02T00:33:01.580Z,20.78
2017-06-02T00:35:30.408Z,22.94
2017-06-02T00:37:59.224Z,22.20
2017-06-02T00:40:28.138Z,24.82
2017-06-02T00:42:56.947Z,24.92
2017-06-02T00:45:25.788Z,24.14
2017-06-02T00:47:54.624Z,26.40
2017-06-02T00:50:23.447Z,25.22
2017-06-02T00:52:52.292Z,26.34
2017-06-02T00:55:21.129Z,24.16
2017-06-02T00:57:49.938Z,27.06
2017-06-02T01:00:18.754Z,29.02
2017-06-02T01:02:47.591Z,27.38
2017-06-02T01:05:16.418Z,27.10
2017-06-02T01:07:45.242Z,25.92
2017-06-02T01:10:14.083Z,27.06
2017-06-02T01:12:42.943Z,25.48
2017-06-02T01:15:11.790Z,26.24
2017-06-02T01:17:40.632Z,27.18
2017-06-02T01:20:09.479Z,26.98
2017-06-02T01:22:38.275Z,27.64
2017-06-02T01:25:07.091Z,26.70
2017-06-02T01:27:35.931Z,26.42
2017-06-02T01:30:04.739Z,27.80
2017-06-02T01:32:33.555Z,28.32
2017-06-02T01:35:02.396Z,27.78
2017-06-02T01:37:31.222Z,25.34
2017-06-02T01:40:00.023Z,27.40
2017-06-02T01:42:28.867Z,29.24
2017-06-02T01:44:57.707Z,27.42
2017-06-02T01:47:26.520Z,25.18
2017-06-02T01:49:55.343Z,30.70
2017-06-02T01:52:24.535Z,23.96
2017-06-02T01:54:53.351Z,26.14
2017-06-02T01:57:22.178Z,28.80
2017-06-02T01:59:51.011Z,25.68
2017-06-02T02:02:19.820Z,24.00
2017-06-02T02:04:48.662Z,26.52
2017-06-02T02:07:17.470Z,27.84
2017-06-02T02:09:46.287Z,29.10
2017-06-02T02:12:15.112Z,27.24
2017-06-02T02:14:44.678Z,27.42
2017-06-02T02:17:13.513Z,28.92
2017-06-02T02:19:42.339Z,28.40
2017-06-02T02:22:11.144Z,27.36
2017-06-02T02:24:39.968Z,27.14
2017-06-02T02:27:08.787Z,27.12
2017-06-02T02:29:37.612Z,26.84
2017-06-02T02:32:06.429Z,26.18
2017-06-02T02:34:35.276Z,27.62
2017-06-02T02:37:04.100Z,27.66
2017-06-02T02:39:32.928Z,26.68
2017-06-02T02:42:01.752Z,24.22
2017-06-02T02:44:30.672Z,25.42
2017-06-02T02:46:59.476Z,22.82
2017-06-02T02:49:28.331Z,23.26
2017-06-02T02:51:57.163Z,22.12
2017-06-02T02:54:25.978Z,29.24
2017-06-02T02:56:54.820Z,19.54
2017-06-02T02:59:23.675Z,22.62
2017-06-02T03:01:52.518Z,21.74
2017-06-02T03:04:21.343Z,22.40
2017-06-02T03:06:50.161Z,21.82
2017-06-02T03:09:19.007Z,21.40
2017-06-02T03:11:47.830Z,20.90
2017-06-02T03:14:16.643Z,21.34
2017-06-02T03:16:45.483Z,21.62
2017-06-02T03:19:14.295Z,21.94
2017-06-02T03:21:43.124Z,21.56
2017-06-02T03:24:11.959Z,20.46
2017-06-02T03:26:40.781Z,20.44
2017-06-02T03:29:09.623Z,17.96
2017-06-02T03:31:38.428Z,20.86
2017-06-02T03:34:07.251Z,21.06
2017-06-02T03:36:36.087Z,20.36
2017-06-02T03:39:04.895Z,19.54
2017-06-02T03:41:33.745Z,20.60
2017-06-02T03:44:02.559Z,23.62
2017-06-02T03:46:31.370Z,19.92
2017-06-02T03:49:00.195Z,20.56
2017-06-02T03:51:29.063Z,19.28
2017-06-02T03:53:57.883Z,18.80
2017-06-02T03:56:26.704Z,19.68
2017-06-02T03:58:55.552Z,19.94
2017-06-02T04:01:24.351Z,18.54
2017-06-02T04:03:53.173Z,36.62
2017-06-02T04:06:22.000Z,20.46
2017-06-02T04:08:50.823Z,19.80
2017-06-02T04:11:19.624Z,21.98
2017-06-02T04:13:48.472Z,20.34
2017-06-02T04:16:17.283Z,19.52
2017-06-02T04:18:46.102Z,17.92
2017-06-02T04:21:14.994Z,19.16
2017-06-02T04:23:43.787Z,18.74
2017-06-02T04:26:12.609Z,17.92
2017-06-02T04:28:41.435Z,17.12
2017-06-02T04:31:10.254Z,16.68
2017-06-02T04:33:39.067Z,18.70
2017-06-02T04:36:07.890Z,18.24
2017-06-02T04:38:36.699Z,19.28
2017-06-02T04:41:05.559Z,19.52
2017-06-02T04:43:34.375Z,19.22
2017-06-02T04:46:03.211Z,19.90
2017-06-02T04:48:32.054Z,20.44
2017-06-02T04:51:00.877Z,18.74
2017-06-02T04:53:29.695Z,20.10
2017-06-02T04:55:58.526Z,17.06
2017-06-02T04:58:27.350Z,17.24
2017-06-02T05:00:56.187Z,18.72
2017-06-02T05:03:25.003Z,18.70
2017-06-02T05:05:53.822Z,18.08
2017-06-02T05:08:22.667Z,17.06
2017-06-02T05:10:51.481Z,16.62
2017-06-02T05:13:20.287Z,33.24
2017-06-02T05:15:49.147Z,20.84
2017-06-02T05:18:17.967Z,18.16
2017-06-02T05:20:46.769Z,17.46
2017-06-02T05:23:15.609Z,24.46
2017-06-02T05:25:44.515Z,21.56
2017-06-02T05:28:13.348Z,24.98
2017-06-02T05:30:42.179Z,16.88
2017-06-02T05:33:11.017Z,16.98
2017-06-02T05:35:39.844Z,16.94
2017-06-02T05:38:08.672Z,17.34
2017-06-02T05:40:37.495Z,16.60
2017-06-02T05:43:06.329Z,20.78
2017-06-02T05:45:35.160Z,15.56
2017-06-02T05:48:03.981Z,22.46
2017-06-02T05:50:32.791Z,18.38
2017-06-02T05:53:01.634Z,16.92
2017-06-02T05:55:30.480Z,18.24
2017-06-02T05:58:04.334Z,22.90
2017-06-02T06:00:33.174Z,16.42
2017-06-02T06:03:01.991Z,39.14
2017-06-02T06:05:30.803Z,19.98
2017-06-02T06:07:59.630Z,19.50
2017-06-02T06:10:28.471Z,20.32
2017-06-02T06:12:57.294Z,19.60
2017-06-02T06:15:26.129Z,16.42
2017-06-02T06:17:54.963Z,17.66
2017-06-02T06:20:23.787Z,17.46
2017-06-02T06:22:52.615Z,16.98
2017-06-02T06:25:21.451Z,18.90
2017-06-02T06:27:50.290Z,21.40
2017-06-02T06:30:19.119Z,18.40
2017-06-02T06:32:47.948Z,16.98
2017-06-02T06:35:16.770Z,18.74
2017-06-02T06:37:45.599Z,16.68
2017-06-02T06:40:14.425Z,18.78
2017-06-02T06:42:43.671Z,18.04
2017-06-02T06:45:12.482Z,17.22
2017-06-02T06:47:41.324Z,19.48
2017-06-02T06:50:10.156Z,22.60
2017-06-02T06:52:38.979Z,17.68
2017-06-02T06:55:07.786Z,17.12
2017-06-02T06:57:36.618Z,18.18
2017-06-02T07:00:05.508Z,19.26
2017-06-02T07:02:34.358Z,17.94
2017-06-02T07:05:03.168Z,17.68
2017-06-02T07:07:31.996Z,16.10
2017-06-02T07:10:00.824Z,17.38
2017-06-02T07:12:29.632Z,18.28
2017-06-02T07:14:58.490Z,20.02
2017-06-02T07:17:27.307Z,14.80
2017-06-02T07:19:56.118Z,15.04
2017-06-02T07:22:24.953Z,16.06
2017-06-02T07:24:53.779Z,14.64
2017-06-02T07:27:22.595Z,15.24
2017-06-02T07:29:51.440Z,16.42
2017-06-02T07:32:20.263Z,14.28
2017-06-02T07:34:49.083Z,13.70
2017-06-02T07:37:17.920Z,13.78
2017-06-02T07:39:46.726Z,14.12
2017-06-02T07:42:15.559Z,15.08
2017-06-02T07:44:44.389Z,22.90
2017-06-02T07:47:13.243Z,16.42
2017-06-02T07:49:42.058Z,14.26
2017-06-02T07:52:10.882Z,19.32
2017-06-02T07:54:39.709Z,22.70
2017-06-02T07:57:08.512Z,9.84
2017-06-02T07:59:37.330Z,11.50
2017-06-02T08:02:06.154Z,9.90
2017-06-02T08:04:34.983Z,8.88
2017-06-02T08:07:03.786Z,8.50
2017-06-02T08:09:32.605Z,9.56
2017-06-02T08:12:01.438Z,9.28
2017-06-02T08:14:30.248Z,10.08
2017-06-02T08:16:59.071Z,8.40
2017-06-02T08:19:27.886Z,8.22
2017-06-02T08:21:56.691Z,8.56
2017-06-02T08:24:25.515Z,7.00
2017-06-02T08:26:54.332Z,7.58
2017-06-02T08:29:23.143Z,8.44
2017-06-02T08:31:51.975Z,9.36
2017-06-02T08:34:20.791Z,8.40
2017-06-02T08:36:49.634Z,7.96
2017-06-02T08:39:18.456Z,7.80
2017-06-02T08:41:47.282Z,7.88
2017-06-02T08:44:16.111Z,6.70
2017-06-02T08:46:44.927Z,7.56
2017-06-02T08:49:13.735Z,7.14
2017-06-02T08:51:42.571Z,8.06
2017-06-02T08:54:11.383Z,9.72
2017-06-02T08:56:40.196Z,8.70
2017-06-02T08:59:09.015Z,8.44
2017-06-02T09:01:37.827Z,8.12
2017-06-02T09:04:06.640Z,8.16
2017-06-02T09:06:35.454Z,7.18
2017-06-02T09:09:04.309Z,7.12
2017-06-02T09:11:33.124Z,7.90
2017-06-02T09:14:01.924Z,6.72
2017-06-02T09:16:30.858Z,6.46
2017-06-02T09:18:59.650Z,13.40
2017-06-02T09:21:28.467Z,6.82
2017-06-02T09:23:57.295Z,5.30
2017-06-02T09:26:26.209Z,6.76
2017-06-02T09:28:55.015Z,7.78
2017-06-02T09:31:23.838Z,6.74
2017-06-02T09:33:52.646Z,8.28
2017-06-02T09:36:21.475Z,6.70
2017-06-02T09:38:50.287Z,6.20
2017-06-02T09:41:19.103Z,7.72
2017-06-02T09:43:47.934Z,8.34
2017-06-02T09:46:16.757Z,7.08
2017-06-02T09:48:45.580Z,7.60
2017-06-02T09:51:14.399Z,6.46
2017-06-02T09:53:43.210Z,6.40
2017-06-02T09:56:12.034Z,6.72
2017-06-02T09:58:40.839Z,6.76
2017-06-02T10:01:09.651Z,8.88
2017-06-02T10:03:38.490Z,7.78
2017-06-02T10:06:07.309Z,8.22
2017-06-02T10:08:36.115Z,6.80
2017-06-02T10:11:04.923Z,5.98
2017-06-02T10:13:33.751Z,5.30
2017-06-02T10:16:02.592Z,5.92
2017-06-02T10:18:31.404Z,5.26
2017-06-02T10:21:00.215Z,7.08
2017-06-02T10:23:29.035Z,5.78
2017-06-02T10:25:57.847Z,5.38
2017-06-02T10:28:26.691Z,5.90
2017-06-02T10:30:55.499Z,6.54
2017-06-02T10:33:24.305Z,5.40
2017-06-02T10:35:53.117Z,5.94
2017-06-02T10:38:21.936Z,5.68
2017-06-02T10:40:50.784Z,7.46
2017-06-02T10:43:19.597Z,7.26
2017-06-02T10:45:48.399Z,7.70
2017-06-02T10:48:17.227Z,7.58
2017-06-02T10:50:46.036Z,6.66
2017-06-02T10:53:14.867Z,7.66
2017-06-02T10:55:43.677Z,7.12
2017-06-02T10:58:12.486Z,6.08
2017-06-02T11:00:41.303Z,7.56
2017-06-02T11:03:10.120Z,7.02
2017-06-02T11:05:39.513Z,7.10
2017-06-02T11:08:08.308Z,6.72
2017-06-02T11:10:37.122Z,6.98
2017-06-02T11:13:05.943Z,6.24
2017-06-02T11:15:34.772Z,6.82
2017-06-02T11:18:03.575Z,6.52
2017-06-02T11:20:32.400Z,7.44
2017-06-02T11:23:01.203Z,7.30
2017-06-02T11:25:30.123Z,7.10
2017-06-02T11:27:58.922Z,7.66
2017-06-02T11:30:27.734Z,8.34
2017-06-02T11:32:56.560Z,6.48
2017-06-02T11:35:25.386Z,6.60
2017-06-02T11:37:54.226Z,6.28
2017-06-02T11:40:23.045Z,6.72
2017-06-02T11:42:51.851Z,8.42
2017-06-02T11:45:20.688Z,7.84
2017-06-02T11:47:49.491Z,6.14
2017-06-02T11:50:18.337Z,6.52
2017-06-02T11:52:47.147Z,6.26
2017-06-02T11:55:15.958Z,6.48
2017-06-02T11:57:44.799Z,6.90
2017-06-02T12:00:13.616Z,7.36
2017-06-02T12:02:42.447Z,5.84
2017-06-02T12:05:11.268Z,6.96
2017-06-02T12:07:40.111Z,6.24
2017-06-02T12:10:08.953Z,6.88
2017-06-02T12:12:37.768Z,7.60
2017-06-02T12:15:06.601Z,6.54
2017-06-02T12:17:35.440Z,6.84
2017-06-02T12:20:04.243Z,6.10
2017-06-02T12:22:33.058Z,6.70
2017-06-02T12:25:01.903Z,5.50
2017-06-02T12:27:30.730Z,5.76
2017-06-02T12:29:59.563Z,6.34
2017-06-02T12:32:28.382Z,7.54
2017-06-02T12:34:57.225Z,6.10
2017-06-02T12:37:26.043Z,8.68
2017-06-02T12:39:54.862Z,6.46
2017-06-02T12:42:23.680Z,8.44
2017-06-02T12:44:52.513Z,7.18
2017-06-02T12:47:21.347Z,6.74
2017-06-02T12:49:50.198Z,8.46
2017-06-02T12:52:18.991Z,7.08
2017-06-02T12:54:47.914Z,7.06
2017-06-02T12:57:16.739Z,7.56
2017-06-02T12:59:45.543Z,7.18
2017-06-02T13:02:14.375Z,7.04
2017-06-02T13:04:43.188Z,8.80
2017-06-02T13:07:12.009Z,7.68
2017-06-02T13:09:40.845Z,7.52
2017-06-02T13:12:09.667Z,8.02
2017-06-02T13:14:38.491Z,7.10
2017-06-02T13:17:07.309Z,8.76
2017-06-02T13:19:36.115Z,7.06
2017-06-02T13:22:04.947Z,6.14
2017-06-02T13:24:33.766Z,6.46
2017-06-02T13:27:02.583Z,7.32
2017-06-02T13:29:31.399Z,6.46
2017-06-02T13:32:00.240Z,7.70
2017-06-02T13:34:29.078Z,7.20
2017-06-02T13:36:57.887Z,7.02
2017-06-02T13:39:26.702Z,7.50
2017-06-02T13:41:55.534Z,6.74
2017-06-02T13:44:24.343Z,6.62
2017-06-02T13:46:53.165Z,8.58
2017-06-02T13:49:22.013Z,7.66
2017-06-02T13:51:50.820Z,11.10
2017-06-02T13:54:19.656Z,7.58
2017-06-02T13:56:48.508Z,6.60
2017-06-02T13:59:17.317Z,8.16
2017-06-02T14:01:46.170Z,7.50
2017-06-02T14:04:14.967Z,6.80
2017-06-02T14:06:43.811Z,7.80
2017-06-02T14:09:12.610Z,5.88
2017-06-02T14:11:41.435Z,6.36
2017-06-02T14:14:10.270Z,6.66
2017-06-02T14:16:39.073Z,7.08
2017-06-02T14:19:07.896Z,6.54
2017-06-02T14:21:36.750Z,7.02
2017-06-02T14:24:05.577Z,12.74
2017-06-02T14:26:34.380Z,6.40
2017-06-02T14:29:03.209Z,7.20
2017-06-02T14:31:32.045Z,8.44
2017-06-02T14:34:00.887Z,7.50
2017-06-02T14:36:29.712Z,8.06
2017-06-02T14:38:58.551Z,7.12
2017-06-02T14:41:27.367Z,7.58
2017-06-02T14:43:56.199Z,6.08
2017-06-02T14:46:25.027Z,8.12
2017-06-02T14:48:53.831Z,8.12
2017-06-02T14:51:22.652Z,6.82
2017-06-02T14:53:51.490Z,6.86
2017-06-02T14:56:20.295Z,8.10
2017-06-02T14:58:49.119Z,8.00
2017-06-02T15:01:17.952Z,7.62
2017-06-02T15:03:46.787Z,8.20
2017-06-02T15:06:15.592Z,9.20
2017-06-02T15:08:44.421Z,7.50
2017-06-02T15:11:13.227Z,8.28
2017-06-02T15:13:42.051Z,9.12
2017-06-02T15:16:10.868Z,9.24
2017-06-02T15:18:39.895Z,8.80
2017-06-02T15:21:08.699Z,8.78
2017-06-02T15:23:37.532Z,7.78
2017-06-02T15:26:06.344Z,9.02
2017-06-02T15:28:35.152Z,8.74
2017-06-02T15:31:03.972Z,8.30
2017-06-02T15:33:32.815Z,11.36
2017-06-02T15:36:01.632Z,13.44
2017-06-02T15:38:30.451Z,11.04
2017-06-02T15:40:59.281Z,12.06
2017-06-02T15:43:28.090Z,7.88
2017-06-02T15:48:32.191Z,9.14
2017-06-02T15:51:01.023Z,8.50
2017-06-02T15:53:29.861Z,7.44
2017-06-02T15:55:58.676Z,9.72
2017-06-02T15:58:27.474Z,7.80
2017-06-02T16:00:56.307Z,7.76
2017-06-02T16:03:25.126Z,9.42
2017-06-02T16:05:53.941Z,7.30
2017-06-02T16:08:22.800Z,8.72
2017-06-02T16:10:51.610Z,8.62
2017-06-02T16:13:20.455Z,8.88
2017-06-02T16:15:49.333Z,7.48
2017-06-02T16:18:18.172Z,8.32
2017-06-02T16:20:46.987Z,8.50
2017-06-02T16:23:15.812Z,8.68
2017-06-02T16:25:44.619Z,9.60
2017-06-02T16:28:13.450Z,8.62
2017-06-02T16:30:42.271Z,8.12
2017-06-02T16:33:11.108Z,8.10
2017-06-02T16:35:39.931Z,8.14
2017-06-02T16:38:08.771Z,10.04
2017-06-02T16:40:37.572Z,9.00
2017-06-02T16:43:06.427Z,7.78
2017-06-02T16:45:35.240Z,8.24
2017-06-02T16:48:04.064Z,7.94
2017-06-02T16:50:32.898Z,8.00
2017-06-02T16:53:01.722Z,8.72
2017-06-02T16:55:30.543Z,8.52
2017-06-02T16:57:59.379Z,7.78
2017-06-02T17:00:28.196Z,7.92
2017-06-02T17:02:57.025Z,8.10
2017-06-02T17:05:25.878Z,8.38
2017-06-02T17:07:54.669Z,8.58
2017-06-02T17:10:23.494Z,8.14
2017-06-02T17:12:52.316Z,8.64
2017-06-02T17:15:21.137Z,7.72
2017-06-02T17:17:49.985Z,7.58
2017-06-02T17:20:18.803Z,7.90
2017-06-02T17:22:47.647Z,9.92
2017-06-02T17:25:16.495Z,9.88
2017-06-02T17:27:45.314Z,8.72
2017-06-02T17:30:14.118Z,8.02
2017-06-02T17:32:42.950Z,6.72
2017-06-02T17:35:11.836Z,8.48
2017-06-02T17:37:40.673Z,11.24
2017-06-02T17:40:09.488Z,7.54
2017-06-02T17:42:38.304Z,7.10
2017-06-02T17:45:07.868Z,6.92
2017-06-02T17:47:36.723Z,9.22
2017-06-02T17:50:05.516Z,7.70
2017-06-02T17:52:34.335Z,7.84
2017-06-02T17:55:03.146Z,7.90
2017-06-02T17:57:32.006Z,7.90
2017-06-02T18:00:04.567Z,7.20
2017-06-02T18:02:33.388Z,6.90
2017-06-02T18:05:02.195Z,8.14
2017-06-02T18:07:31.641Z,6.96
2017-06-02T18:10:00.456Z,7.50
2017-06-02T18:12:29.272Z,8.28
2017-06-02T18:14:58.086Z,7.48
2017-06-02T18:17:26.892Z,7.16
2017-06-02T18:19:55.730Z,7.22
2017-06-02T18:22:24.550Z,13.68
2017-06-02T18:24:53.371Z,7.20
2017-06-02T18:27:22.194Z,8.88
2017-06-02T18:29:51.046Z,8.26
2017-06-02T18:32:19.874Z,8.40
2017-06-02T18:34:48.719Z,7.02
2017-06-02T18:37:17.580Z,6.40
2017-06-02T18:39:46.412Z,6.74
2017-06-02T18:42:15.228Z,5.98
2017-06-02T18:44:44.019Z,5.62
2017-06-02T18:47:12.883Z,44.32
2017-06-02T18:49:41.703Z,6.22
2017-06-02T18:52:10.503Z,5.84
2017-06-02T18:54:42.022Z,5.38
2017-06-02T18:57:10.831Z,5.76
2017-06-02T18:59:39.637Z,6.46
2017-06-02T19:02:08.443Z,6.58
2017-06-02T19:04:37.296Z,7.96
2017-06-02T19:07:06.117Z,10.12
2017-06-02T19:09:35.852Z,9.70
2017-06-02T19:12:04.699Z,12.36
2017-06-02T19:14:32.772Z,13.84
2017-06-02T19:17:01.630Z,13.60
2017-06-02T19:19:30.474Z,19.56
2017-06-02T19:21:59.300Z,20.40
2017-06-02T19:24:28.147Z,25.02
2017-06-02T19:26:56.965Z,28.58
2017-06-02T19:29:25.784Z,32.54
2017-06-02T19:31:55.535Z,26.56
2017-06-02T19:34:24.347Z,25.36
2017-06-02T19:36:53.176Z,32.12
2017-06-02T19:39:22.002Z,28.48
2017-06-02T19:41:50.935Z,39.90
2017-06-02T19:44:19.734Z,36.44
2017-06-02T19:46:48.575Z,30.10
2017-06-02T19:49:17.409Z,39.20
2017-06-02T19:51:46.220Z,46.88
2017-06-02T19:54:15.397Z,35.00
2017-06-02T19:56:44.378Z,76.46
2017-06-02T19:59:13.221Z,44.84
2017-06-02T20:01:42.040Z,40.22
2017-06-02T20:04:10.873Z,52.52
2017-06-02T20:06:39.727Z,35.04
2017-06-02T20:09:08.560Z,55.12
2017-06-02T20:11:37.379Z,33.14
2017-06-02T20:14:06.236Z,49.60
2017-06-02T20:16:35.051Z,38.32
2017-06-02T20:19:03.892Z,57.04
2017-06-02T20:21:32.747Z,43.14
2017-06-02T20:24:01.593Z,60.18
2017-06-02T20:26:30.426Z,41.34
2017-06-02T20:28:59.239Z,48.60
2017-06-02T20:31:28.083Z,42.06
2017-06-02T20:33:56.904Z,65.52
2017-06-02T20:36:25.747Z,86.98
2017-06-02T20:38:54.578Z,53.06
2017-06-02T20:41:23.403Z,55.72
2017-06-02T20:43:52.253Z,55.84
2017-06-02T20:46:21.078Z,40.10
2017-06-02T20:48:49.933Z,36.80
2017-06-02T20:51:18.773Z,40.40
2017-06-02T20:53:47.592Z,38.82
2017-06-02T20:56:16.440Z,37.92
2017-06-02T20:58:45.261Z,31.44
2017-06-02T21:01:14.100Z,41.56
2017-06-02T21:03:42.928Z,34.64
2017-06-02T21:06:11.755Z,30.82
2017-06-02T21:08:40.623Z,32.32
2017-06-02T21:11:09.452Z,30.72
2017-06-02T21:13:38.298Z,26.90
2017-06-02T21:16:07.143Z,27.82
2017-06-02T21:18:35.968Z,28.06
2017-06-02T21:21:04.796Z,29.22
2017-06-02T21:23:33.633Z,30.24
2017-06-02T21:26:02.468Z,32.48
2017-06-02T21:28:31.293Z,31.36
2017-06-02T21:31:00.143Z,27.22
2017-06-02T21:33:28.989Z,29.92
2017-06-02T21:35:57.795Z,27.50
2017-06-02T21:38:26.687Z,24.68
2017-06-02T21:40:55.501Z,26.30
2017-06-02T21:43:24.332Z,27.24
2017-06-02T21:45:53.180Z,24.48
2017-06-02T21:48:21.983Z,26.36
2017-06-02T21:50:50.868Z,24.22
2017-06-02T21:53:19.711Z,25.74
2017-06-02T21:55:48.527Z,24.74
2017-06-02T21:58:17.367Z,22.30
2017-06-02T22:00:46.207Z,22.60
2017-06-02T22:03:15.044Z,23.52
2017-06-02T22:05:43.878Z,23.30
2017-06-02T22:08:12.728Z,23.96
2017-06-02T22:10:41.539Z,24.32
2017-06-02T22:13:10.357Z,25.26
2017-06-02T22:15:39.208Z,25.46
2017-06-02T22:18:08.029Z,22.86
2017-06-02T22:20:36.850Z,25.54
2017-06-02T22:23:05.695Z,23.00
2017-06-02T22:25:34.503Z,24.94
2017-06-02T22:28:03.339Z,23.20
2017-06-02T22:30:32.167Z,24.48
2017-06-02T22:33:00.986Z,24.54
2017-06-02T22:35:29.813Z,25.44
2017-06-02T22:37:58.647Z,26.48
2017-06-02T22:40:27.463Z,24.24
2017-06-02T22:42:56.298Z,22.70
2017-06-02T22:45:25.133Z,25.80
2017-06-02T22:47:53.946Z,26.98
2017-06-02T22:50:22.777Z,26.50
2017-06-02T22:52:51.607Z,24.64
2017-06-02T22:55:20.459Z,22.32
2017-06-02T22:57:49.294Z,25.64
2017-06-02T23:00:18.096Z,27.10
2017-06-02T23:02:46.926Z,24.58
2017-06-02T23:05:15.749Z,24.80
2017-06-02T23:07:44.572Z,27.98
2017-06-02T23:10:13.444Z,23.54
2017-06-02T23:12:42.259Z,23.82
2017-06-02T23:15:11.079Z,25.34
2017-06-02T23:17:39.900Z,26.56
2017-06-02T23:20:08.760Z,28.34
2017-06-02T23:22:37.576Z,26.12
2017-06-02T23:25:06.375Z,25.92
2017-06-02T23:27:35.217Z,27.58
2017-06-02T23:30:04.034Z,27.34
2017-06-02T23:32:32.866Z,25.86
2017-06-02T23:35:01.689Z,27.08
2017-06-02T23:37:30.502Z,26.96
2017-06-02T23:39:59.324Z,26.06
2017-06-02T23:42:28.162Z,27.06
2017-06-02T23:44:56.984Z,25.64
2017-06-02T23:47:25.814Z,27.06
2017-06-02T23:49:54.631Z,24.58
2017-06-02T23:52:23.454Z,23.98
2017-06-02T23:54:52.282Z,23.48
2017-06-02T23:57:21.098Z,24.56
2017-06-02T23:59:49.950Z,22.60
